sensor_id;sensor_type;location;lat;lon;timestamp;temperature;humidity
1405;DHT22;697;51.114;6.542;2023-05-10T00:00:37;15.70;99.90
1405;DHT22;697;51.114;6.542;2023-05-10T00:03:04;15.70;99.90
1405;DHT22;697;51.114;6.542;2023-05-10T00:05:31;15.70;99.90
1405;DHT22;697;51.114;6.542;2023-05-10T00:07:57;15.70;99.90
1405;DHT22;697;51.114;6.542;2023-05-10T00:10:25;15.70;99.90
1405;DHT22;697;51.114;6.542;2023-05-10T00:12:52;15.60;99.90
1405;DHT22;697;51.114;6.542;2023-05-10T00:15:19;15.60;99.90
1405;DHT22;697;51.114;6.542;2023-05-10T00:17:45;15.50;99.90
1405;DHT22;697;51.114;6.542;2023-05-10T00:20:12;15.50;99.90
1405;DHT22;697;51.114;6.542;2023-05-10T00:22:39;15.40;99.90
1405;DHT22;697;51.114;6.542;2023-05-10T00:25:07;15.40;99.90
1405;DHT22;697;51.114;6.542;2023-05-10T00:27:35;15.30;99.90
1405;DHT22;697;51.114;6.542;2023-05-10T00:30:02;15.30;99.90
1405;DHT22;697;51.114;6.542;2023-05-10T00:32:29;15.40;99.90
1405;DHT22;697;51.114;6.542;2023-05-10T00:34:56;15.40;99.90
1405;DHT22;697;51.114;6.542;2023-05-10T00:37:23;15.40;99.90
1405;DHT22;697;51.114;6.542;2023-05-10T00:39:49;15.40;99.90
1405;DHT22;697;51.114;6.542;2023-05-10T00:42:16;15.40;99.90
1405;DHT22;697;51.114;6.542;2023-05-10T00:44:44;15.40;99.90
1405;DHT22;697;51.114;6.542;2023-05-10T00:47:12;15.40;99.90
1405;DHT22;697;51.114;6.542;2023-05-10T00:49:39;15.50;99.90
1405;DHT22;697;51.114;6.542;2023-05-10T00:52:07;15.40;99.90
1405;DHT22;697;51.114;6.542;2023-05-10T00:54:34;15.40;99.90
1405;DHT22;697;51.114;6.542;2023-05-10T00:57:01;15.50;99.90
1405;DHT22;697;51.114;6.542;2023-05-10T00:59:29;15.50;99.90
1405;DHT22;697;51.114;6.542;2023-05-10T01:01:57;15.50;99.90
1405;DHT22;697;51.114;6.542;2023-05-10T01:04:24;15.40;99.90
1405;DHT22;697;51.114;6.542;2023-05-10T01:06:52;15.50;99.90
1405;DHT22;697;51.114;6.542;2023-05-10T01:09:19;15.40;99.90
1405;DHT22;697;51.114;6.542;2023-05-10T01:11:46;15.40;99.90
1405;DHT22;697;51.114;6.542;2023-05-10T01:14:14;15.40;99.90
1405;DHT22;697;51.114;6.542;2023-05-10T01:16:45;15.40;99.90
1405;DHT22;697;51.114;6.542;2023-05-10T01:19:18;15.40;99.90
1405;DHT22;697;51.114;6.542;2023-05-10T01:21:53;15.50;99.90
1405;DHT22;697;51.114;6.542;2023-05-10T01:24:46;15.50;99.90
1405;DHT22;697;51.114;6.542;2023-05-10T01:27:30;15.50;99.90
1405;DHT22;697;51.114;6.542;2023-05-10T01:30:14;15.50;99.90
1405;DHT22;697;51.114;6.542;2023-05-10T01:32:50;15.50;99.90
1405;DHT22;697;51.114;6.542;2023-05-10T01:35:22;15.50;99.90
1405;DHT22;697;51.114;6.542;2023-05-10T01:37:59;15.50;99.90
1405;DHT22;697;51.114;6.542;2023-05-10T01:40:32;15.50;99.90
1405;DHT22;697;51.114;6.542;2023-05-10T01:43:02;15.50;99.90
1405;DHT22;697;51.114;6.542;2023-05-10T01:45:33;15.50;99.90
1405;DHT22;697;51.114;6.542;2023-05-10T01:48:06;15.60;99.90
1405;DHT22;697;51.114;6.542;2023-05-10T01:50:35;15.60;99.90
1405;DHT22;697;51.114;6.542;2023-05-10T01:53:02;15.60;99.90
1405;DHT22;697;51.114;6.542;2023-05-10T01:55:34;15.60;99.90
1405;DHT22;697;51.114;6.542;2023-05-10T01:58:04;15.60;99.90
1405;DHT22;697;51.114;6.542;2023-05-10T02:00:32;15.60;99.90
1405;DHT22;697;51.114;6.542;2023-05-10T02:03:01;15.60;99.90
1405;DHT22;697;51.114;6.542;2023-05-10T02:05:32;15.60;99.90
1405;DHT22;697;51.114;6.542;2023-05-10T02:08:00;15.60;99.90
1405;DHT22;697;51.114;6.542;2023-05-10T02:10:28;15.60;99.90
1405;DHT22;697;51.114;6.542;2023-05-10T02:12:55;15.60;99.90
1405;DHT22;697;51.114;6.542;2023-05-10T02:15:25;15.70;99.90
1405;DHT22;697;51.114;6.542;2023-05-10T02:17:54;15.70;99.90
1405;DHT22;697;51.114;6.542;2023-05-10T02:20:22;15.70;99.90
1405;DHT22;697;51.114;6.542;2023-05-10T02:22:53;15.70;99.90
1405;DHT22;697;51.114;6.542;2023-05-10T02:25:22;15.70;99.90
1405;DHT22;697;51.114;6.542;2023-05-10T02:27:50;15.70;99.90
1405;DHT22;697;51.114;6.542;2023-05-10T02:30:18;15.70;99.90
1405;DHT22;697;51.114;6.542;2023-05-10T02:32:46;15.70;99.90
1405;DHT22;697;51.114;6.542;2023-05-10T02:35:14;15.70;99.90
1405;DHT22;697;51.114;6.542;2023-05-10T02:37:41;15.70;99.90
1405;DHT22;697;51.114;6.542;2023-05-10T02:40:12;15.70;99.90
1405;DHT22;697;51.114;6.542;2023-05-10T02:42:42;15.70;99.90
1405;DHT22;697;51.114;6.542;2023-05-10T02:45:13;15.70;99.90
1405;DHT22;697;51.114;6.542;2023-05-10T02:47:40;15.70;99.90
1405;DHT22;697;51.114;6.542;2023-05-10T02:50:07;15.70;99.90
1405;DHT22;697;51.114;6.542;2023-05-10T02:52:39;15.70;99.90
1405;DHT22;697;51.114;6.542;2023-05-10T02:55:11;15.70;99.90
1405;DHT22;697;51.114;6.542;2023-05-10T02:57:41;15.70;99.90
1405;DHT22;697;51.114;6.542;2023-05-10T03:00:10;15.70;99.90
1405;DHT22;697;51.114;6.542;2023-05-10T03:02:37;15.70;99.90
1405;DHT22;697;51.114;6.542;2023-05-10T03:05:04;15.70;99.90
1405;DHT22;697;51.114;6.542;2023-05-10T03:07:31;15.70;99.90
1405;DHT22;697;51.114;6.542;2023-05-10T03:09:58;15.70;99.90
1405;DHT22;697;51.114;6.542;2023-05-10T03:12:37;15.70;99.90
1405;DHT22;697;51.114;6.542;2023-05-10T03:15:13;15.80;99.90
1405;DHT22;697;51.114;6.542;2023-05-10T03:17:46;15.70;99.90
1405;DHT22;697;51.114;6.542;2023-05-10T03:20:21;15.80;99.90
1405;DHT22;697;51.114;6.542;2023-05-10T03:22:51;15.80;99.90
1405;DHT22;697;51.114;6.542;2023-05-10T03:25:21;15.80;99.90
1405;DHT22;697;51.114;6.542;2023-05-10T03:27:49;15.70;99.90
1405;DHT22;697;51.114;6.542;2023-05-10T03:30:16;15.70;99.90
1405;DHT22;697;51.114;6.542;2023-05-10T03:32:43;15.70;99.90
1405;DHT22;697;51.114;6.542;2023-05-10T03:35:11;15.60;99.90
1405;DHT22;697;51.114;6.542;2023-05-10T03:37:39;15.60;99.90
1405;DHT22;697;51.114;6.542;2023-05-10T03:40:07;15.60;99.90
1405;DHT22;697;51.114;6.542;2023-05-10T03:42:34;15.60;99.90
1405;DHT22;697;51.114;6.542;2023-05-10T03:45:02;15.60;99.90
1405;DHT22;697;51.114;6.542;2023-05-10T03:47:29;15.50;99.90
1405;DHT22;697;51.114;6.542;2023-05-10T03:49:56;15.60;99.90
1405;DHT22;697;51.114;6.542;2023-05-10T03:52:22;15.60;99.90
1405;DHT22;697;51.114;6.542;2023-05-10T03:54:49;15.50;99.90
1405;DHT22;697;51.114;6.542;2023-05-10T03:57:16;15.50;99.90
1405;DHT22;697;51.114;6.542;2023-05-10T03:59:42;15.50;99.90
1405;DHT22;697;51.114;6.542;2023-05-10T04:02:10;15.50;99.90
1405;DHT22;697;51.114;6.542;2023-05-10T04:04:37;15.50;99.90
1405;DHT22;697;51.114;6.542;2023-05-10T04:07:04;15.50;99.90
1405;DHT22;697;51.114;6.542;2023-05-10T04:09:30;15.50;99.90
1405;DHT22;697;51.114;6.542;2023-05-10T04:11:59;15.50;99.90
1405;DHT22;697;51.114;6.542;2023-05-10T04:14:26;15.50;99.90
1405;DHT22;697;51.114;6.542;2023-05-10T04:16:53;15.50;99.90
1405;DHT22;697;51.114;6.542;2023-05-10T04:19:22;15.40;99.90
1405;DHT22;697;51.114;6.542;2023-05-10T04:21:48;15.40;99.90
1405;DHT22;697;51.114;6.542;2023-05-10T04:24:15;15.30;99.90
1405;DHT22;697;51.114;6.542;2023-05-10T04:26:42;15.30;99.90
1405;DHT22;697;51.114;6.542;2023-05-10T04:29:08;15.20;99.90
1405;DHT22;697;51.114;6.542;2023-05-10T04:31:35;15.10;99.90
1405;DHT22;697;51.114;6.542;2023-05-10T04:34:02;15.00;99.90
1405;DHT22;697;51.114;6.542;2023-05-10T04:36:30;15.10;99.90
1405;DHT22;697;51.114;6.542;2023-05-10T04:38:57;15.10;99.90
1405;DHT22;697;51.114;6.542;2023-05-10T04:41:24;15.10;99.90
1405;DHT22;697;51.114;6.542;2023-05-10T04:43:51;15.10;99.90
1405;DHT22;697;51.114;6.542;2023-05-10T04:46:17;15.00;99.90
1405;DHT22;697;51.114;6.542;2023-05-10T04:48:44;15.00;99.90
1405;DHT22;697;51.114;6.542;2023-05-10T04:51:11;15.00;99.90
1405;DHT22;697;51.114;6.542;2023-05-10T04:53:39;15.00;99.90
1405;DHT22;697;51.114;6.542;2023-05-10T04:56:06;15.10;99.90
1405;DHT22;697;51.114;6.542;2023-05-10T04:58:33;15.10;99.90
1405;DHT22;697;51.114;6.542;2023-05-10T05:01:05;15.20;99.90
1405;DHT22;697;51.114;6.542;2023-05-10T05:03:32;15.20;99.90
1405;DHT22;697;51.114;6.542;2023-05-10T05:05:59;15.20;99.90
1405;DHT22;697;51.114;6.542;2023-05-10T05:08:25;15.20;99.90
1405;DHT22;697;51.114;6.542;2023-05-10T05:10:53;15.30;99.90
1405;DHT22;697;51.114;6.542;2023-05-10T05:13:21;15.30;99.90
1405;DHT22;697;51.114;6.542;2023-05-10T05:15:47;15.40;99.90
1405;DHT22;697;51.114;6.542;2023-05-10T05:18:14;15.30;99.90
1405;DHT22;697;51.114;6.542;2023-05-10T05:20:41;15.30;99.90
1405;DHT22;697;51.114;6.542;2023-05-10T05:23:07;15.40;99.90
1405;DHT22;697;51.114;6.542;2023-05-10T05:25:34;15.40;99.90
1405;DHT22;697;51.114;6.542;2023-05-10T05:28:02;15.30;99.90
1405;DHT22;697;51.114;6.542;2023-05-10T05:30:29;15.20;99.90
1405;DHT22;697;51.114;6.542;2023-05-10T05:32:56;15.20;99.90
1405;DHT22;697;51.114;6.542;2023-05-10T05:35:22;15.20;99.90
1405;DHT22;697;51.114;6.542;2023-05-10T05:37:49;15.10;99.90
1405;DHT22;697;51.114;6.542;2023-05-10T05:40:16;15.10;99.90
1405;DHT22;697;51.114;6.542;2023-05-10T05:42:42;15.10;99.90
1405;DHT22;697;51.114;6.542;2023-05-10T05:45:10;15.10;99.90
1405;DHT22;697;51.114;6.542;2023-05-10T05:47:39;15.00;99.90
1405;DHT22;697;51.114;6.542;2023-05-10T05:50:06;15.00;99.90
1405;DHT22;697;51.114;6.542;2023-05-10T05:52:33;15.10;99.90
1405;DHT22;697;51.114;6.542;2023-05-10T05:55:00;15.10;99.90
1405;DHT22;697;51.114;6.542;2023-05-10T05:57:26;15.10;99.90
1405;DHT22;697;51.114;6.542;2023-05-10T05:59:53;15.00;99.90
1405;DHT22;697;51.114;6.542;2023-05-10T06:02:21;15.10;99.90
1405;DHT22;697;51.114;6.542;2023-05-10T06:04:48;15.10;99.90
1405;DHT22;697;51.114;6.542;2023-05-10T06:07:14;15.10;99.90
1405;DHT22;697;51.114;6.542;2023-05-10T06:09:41;15.10;99.90
1405;DHT22;697;51.114;6.542;2023-05-10T06:12:07;15.10;99.90
1405;DHT22;697;51.114;6.542;2023-05-10T06:14:34;15.20;99.90
1405;DHT22;697;51.114;6.542;2023-05-10T06:17:01;15.20;99.90
1405;DHT22;697;51.114;6.542;2023-05-10T06:19:31;15.30;99.90
1405;DHT22;697;51.114;6.542;2023-05-10T06:21:58;15.40;99.90
1405;DHT22;697;51.114;6.542;2023-05-10T06:24:25;15.50;99.90
1405;DHT22;697;51.114;6.542;2023-05-10T06:26:52;15.50;99.90
1405;DHT22;697;51.114;6.542;2023-05-10T06:29:19;15.50;99.90
1405;DHT22;697;51.114;6.542;2023-05-10T06:31:45;15.60;99.90
1405;DHT22;697;51.114;6.542;2023-05-10T06:34:13;15.60;99.90
1405;DHT22;697;51.114;6.542;2023-05-10T06:36:41;15.60;99.90
1405;DHT22;697;51.114;6.542;2023-05-10T06:39:07;15.60;99.90
1405;DHT22;697;51.114;6.542;2023-05-10T06:41:34;15.60;99.90
1405;DHT22;697;51.114;6.542;2023-05-10T06:44:01;15.60;99.90
1405;DHT22;697;51.114;6.542;2023-05-10T06:46:29;15.70;99.90
1405;DHT22;697;51.114;6.542;2023-05-10T06:48:55;15.70;99.90
1405;DHT22;697;51.114;6.542;2023-05-10T06:51:22;15.80;99.90
1405;DHT22;697;51.114;6.542;2023-05-10T06:53:50;15.80;99.90
1405;DHT22;697;51.114;6.542;2023-05-10T06:56:17;15.80;99.90
1405;DHT22;697;51.114;6.542;2023-05-10T06:58:44;15.90;99.90
1405;DHT22;697;51.114;6.542;2023-05-10T07:01:10;15.80;99.90
1405;DHT22;697;51.114;6.542;2023-05-10T07:03:37;15.90;99.90
1405;DHT22;697;51.114;6.542;2023-05-10T07:06:04;15.90;99.90
1405;DHT22;697;51.114;6.542;2023-05-10T07:08:32;16.00;99.90
1405;DHT22;697;51.114;6.542;2023-05-10T07:11:01;16.00;99.90
1405;DHT22;697;51.114;6.542;2023-05-10T07:13:29;16.00;99.90
1405;DHT22;697;51.114;6.542;2023-05-10T07:15:56;16.00;99.90
1405;DHT22;697;51.114;6.542;2023-05-10T07:18:23;15.90;99.90
1405;DHT22;697;51.114;6.542;2023-05-10T07:20:50;15.80;99.90
1405;DHT22;697;51.114;6.542;2023-05-10T07:23:17;15.80;99.90
1405;DHT22;697;51.114;6.542;2023-05-10T07:25:45;15.80;99.90
1405;DHT22;697;51.114;6.542;2023-05-10T07:28:13;15.70;99.90
1405;DHT22;697;51.114;6.542;2023-05-10T07:30:40;15.80;99.90
1405;DHT22;697;51.114;6.542;2023-05-10T07:33:07;15.80;99.90
1405;DHT22;697;51.114;6.542;2023-05-10T07:35:35;15.80;99.90
1405;DHT22;697;51.114;6.542;2023-05-10T07:38:02;15.90;99.90
1405;DHT22;697;51.114;6.542;2023-05-10T07:40:29;16.10;99.90
1405;DHT22;697;51.114;6.542;2023-05-10T07:42:55;16.20;99.90
1405;DHT22;697;51.114;6.542;2023-05-10T07:45:24;16.40;99.90
1405;DHT22;697;51.114;6.542;2023-05-10T07:47:50;16.60;99.90
1405;DHT22;697;51.114;6.542;2023-05-10T07:50:17;16.90;99.90
1405;DHT22;697;51.114;6.542;2023-05-10T07:52:44;17.20;99.90
1405;DHT22;697;51.114;6.542;2023-05-10T07:55:10;17.30;99.90
1405;DHT22;697;51.114;6.542;2023-05-10T07:57:37;17.50;99.90
1405;DHT22;697;51.114;6.542;2023-05-10T08:00:05;17.60;99.90
1405;DHT22;697;51.114;6.542;2023-05-10T08:02:35;17.70;99.90
1405;DHT22;697;51.114;6.542;2023-05-10T08:05:02;17.80;99.70
1405;DHT22;697;51.114;6.542;2023-05-10T08:07:30;17.80;99.70
1405;DHT22;697;51.114;6.542;2023-05-10T08:09:57;17.80;99.70
1405;DHT22;697;51.114;6.542;2023-05-10T08:12:24;17.90;99.30
1405;DHT22;697;51.114;6.542;2023-05-10T08:14:50;18.00;99.20
1405;DHT22;697;51.114;6.542;2023-05-10T08:17:17;18.10;98.90
1405;DHT22;697;51.114;6.542;2023-05-10T08:19:45;18.00;98.10
1405;DHT22;697;51.114;6.542;2023-05-10T08:22:12;18.00;97.80
1405;DHT22;697;51.114;6.542;2023-05-10T08:24:38;18.00;98.20
1405;DHT22;697;51.114;6.542;2023-05-10T08:27:07;18.00;98.40
1405;DHT22;697;51.114;6.542;2023-05-10T08:29:34;18.00;98.50
1405;DHT22;697;51.114;6.542;2023-05-10T08:32:01;18.00;98.30
1405;DHT22;697;51.114;6.542;2023-05-10T08:34:28;18.00;98.00
1405;DHT22;697;51.114;6.542;2023-05-10T08:36:57;18.00;98.30
1405;DHT22;697;51.114;6.542;2023-05-10T08:39:24;18.00;98.60
1405;DHT22;697;51.114;6.542;2023-05-10T08:41:51;17.90;98.20
1405;DHT22;697;51.114;6.542;2023-05-10T08:44:20;17.70;97.40
1405;DHT22;697;51.114;6.542;2023-05-10T08:46:50;17.50;98.00
1405;DHT22;697;51.114;6.542;2023-05-10T08:49:20;17.50;98.40
1405;DHT22;697;51.114;6.542;2023-05-10T08:51:52;17.40;98.90
1405;DHT22;697;51.114;6.542;2023-05-10T08:54:23;17.30;98.80
1405;DHT22;697;51.114;6.542;2023-05-10T08:56:49;17.30;99.10
1405;DHT22;697;51.114;6.542;2023-05-10T08:59:16;17.20;99.10
1405;DHT22;697;51.114;6.542;2023-05-10T09:01:44;17.20;99.00
1405;DHT22;697;51.114;6.542;2023-05-10T09:04:11;17.20;98.70
1405;DHT22;697;51.114;6.542;2023-05-10T09:06:38;17.20;98.40
1405;DHT22;697;51.114;6.542;2023-05-10T09:09:05;17.20;98.90
1405;DHT22;697;51.114;6.542;2023-05-10T09:11:33;17.20;98.80
1405;DHT22;697;51.114;6.542;2023-05-10T09:14:01;17.30;98.70
1405;DHT22;697;51.114;6.542;2023-05-10T09:16:27;17.40;98.40
1405;DHT22;697;51.114;6.542;2023-05-10T09:18:54;17.50;98.40
1405;DHT22;697;51.114;6.542;2023-05-10T09:21:21;17.60;97.90
1405;DHT22;697;51.114;6.542;2023-05-10T09:23:48;17.70;97.90
1405;DHT22;697;51.114;6.542;2023-05-10T09:26:15;17.80;98.30
1405;DHT22;697;51.114;6.542;2023-05-10T09:28:55;18.00;97.60
1405;DHT22;697;51.114;6.542;2023-05-10T09:31:22;18.40;97.10
1405;DHT22;697;51.114;6.542;2023-05-10T09:33:50;18.70;97.10
1405;DHT22;697;51.114;6.542;2023-05-10T09:36:17;18.70;95.90
1405;DHT22;697;51.114;6.542;2023-05-10T09:38:48;18.60;94.60
1405;DHT22;697;51.114;6.542;2023-05-10T09:41:16;18.60;95.40
1405;DHT22;697;51.114;6.542;2023-05-10T09:43:43;18.50;95.40
1405;DHT22;697;51.114;6.542;2023-05-10T09:46:11;18.40;95.50
1405;DHT22;697;51.114;6.542;2023-05-10T09:48:42;18.30;95.40
1405;DHT22;697;51.114;6.542;2023-05-10T09:51:09;18.20;95.10
1405;DHT22;697;51.114;6.542;2023-05-10T09:53:36;18.30;95.90
1405;DHT22;697;51.114;6.542;2023-05-10T09:56:03;18.40;94.30
1405;DHT22;697;51.114;6.542;2023-05-10T09:58:29;18.80;94.80
1405;DHT22;697;51.114;6.542;2023-05-10T10:00:56;19.20;94.60
1405;DHT22;697;51.114;6.542;2023-05-10T10:03:24;19.40;93.50
1405;DHT22;697;51.114;6.542;2023-05-10T10:05:51;19.40;92.60
1405;DHT22;697;51.114;6.542;2023-05-10T10:08:18;19.30;92.90
1405;DHT22;697;51.114;6.542;2023-05-10T10:10:46;19.10;92.80
1405;DHT22;697;51.114;6.542;2023-05-10T10:13:13;19.20;92.90
1405;DHT22;697;51.114;6.542;2023-05-10T10:15:42;19.30;92.40
1405;DHT22;697;51.114;6.542;2023-05-10T10:18:12;19.50;93.20
1405;DHT22;697;51.114;6.542;2023-05-10T10:20:41;19.60;92.00
1405;DHT22;697;51.114;6.542;2023-05-10T10:23:08;19.70;91.40
1405;DHT22;697;51.114;6.542;2023-05-10T10:25:35;19.70;91.30
1405;DHT22;697;51.114;6.542;2023-05-10T10:28:12;19.90;91.40
1405;DHT22;697;51.114;6.542;2023-05-10T10:30:43;19.90;91.50
1405;DHT22;697;51.114;6.542;2023-05-10T10:33:51;19.90;90.40
1405;DHT22;697;51.114;6.542;2023-05-10T10:36:23;19.70;88.00
1405;DHT22;697;51.114;6.542;2023-05-10T10:38:56;19.60;90.50
1405;DHT22;697;51.114;6.542;2023-05-10T10:41:29;19.40;89.60
1405;DHT22;697;51.114;6.542;2023-05-10T10:44:33;19.40;90.70
1405;DHT22;697;51.114;6.542;2023-05-10T10:47:01;19.30;91.40
1405;DHT22;697;51.114;6.542;2023-05-10T10:49:31;19.30;92.10
1405;DHT22;697;51.114;6.542;2023-05-10T10:52:21;19.30;91.70
1405;DHT22;697;51.114;6.542;2023-05-10T10:54:51;19.20;91.60
1405;DHT22;697;51.114;6.542;2023-05-10T10:57:19;19.10;91.60
1405;DHT22;697;51.114;6.542;2023-05-10T10:59:47;19.00;91.90
1405;DHT22;697;51.114;6.542;2023-05-10T11:02:33;18.90;91.70
1405;DHT22;697;51.114;6.542;2023-05-10T11:05:09;18.80;92.20
1405;DHT22;697;51.114;6.542;2023-05-10T11:07:54;18.70;92.90
1405;DHT22;697;51.114;6.542;2023-05-10T11:10:22;18.80;93.10
1405;DHT22;697;51.114;6.542;2023-05-10T11:12:53;18.90;93.70
1405;DHT22;697;51.114;6.542;2023-05-10T11:15:28;19.10;94.10
1405;DHT22;697;51.114;6.542;2023-05-10T11:17:56;19.10;93.30
1405;DHT22;697;51.114;6.542;2023-05-10T11:20:22;19.00;93.00
1405;DHT22;697;51.114;6.542;2023-05-10T11:22:55;18.90;93.20
1405;DHT22;697;51.114;6.542;2023-05-10T11:25:26;18.80;93.40
1405;DHT22;697;51.114;6.542;2023-05-10T11:27:53;18.60;93.70
1405;DHT22;697;51.114;6.542;2023-05-10T11:30:20;18.50;94.10
1405;DHT22;697;51.114;6.542;2023-05-10T11:32:47;18.30;94.40
1405;DHT22;697;51.114;6.542;2023-05-10T11:35:14;18.30;95.00
1405;DHT22;697;51.114;6.542;2023-05-10T11:37:41;18.30;94.40
1405;DHT22;697;51.114;6.542;2023-05-10T11:40:11;18.40;94.60
1405;DHT22;697;51.114;6.542;2023-05-10T11:42:38;18.50;95.00
1405;DHT22;697;51.114;6.542;2023-05-10T11:45:06;18.60;94.90
1405;DHT22;697;51.114;6.542;2023-05-10T11:47:33;18.80;94.40
1405;DHT22;697;51.114;6.542;2023-05-10T11:50:01;18.90;93.70
1405;DHT22;697;51.114;6.542;2023-05-10T11:52:27;19.10;93.10
1405;DHT22;697;51.114;6.542;2023-05-10T11:54:54;19.40;92.00
1405;DHT22;697;51.114;6.542;2023-05-10T11:57:26;19.60;92.30
1405;DHT22;697;51.114;6.542;2023-05-10T11:59:54;19.80;91.80
1405;DHT22;697;51.114;6.542;2023-05-10T12:02:21;19.90;91.00
1405;DHT22;697;51.114;6.542;2023-05-10T12:04:47;20.10;91.50
1405;DHT22;697;51.114;6.542;2023-05-10T12:07:15;20.20;90.70
1405;DHT22;697;51.114;6.542;2023-05-10T12:09:43;20.20;90.80
1405;DHT22;697;51.114;6.542;2023-05-10T12:12:10;20.30;90.10
1405;DHT22;697;51.114;6.542;2023-05-10T12:14:38;20.50;90.00
1405;DHT22;697;51.114;6.542;2023-05-10T12:17:05;20.40;87.30
1405;DHT22;697;51.114;6.542;2023-05-10T12:19:37;20.40;89.00
1405;DHT22;697;51.114;6.542;2023-05-10T12:22:04;20.50;88.90
1405;DHT22;697;51.114;6.542;2023-05-10T12:24:34;20.50;88.60
1405;DHT22;697;51.114;6.542;2023-05-10T12:27:04;20.50;88.00
1405;DHT22;697;51.114;6.542;2023-05-10T12:29:33;20.50;89.70
1405;DHT22;697;51.114;6.542;2023-05-10T12:32:01;20.60;90.50
1405;DHT22;697;51.114;6.542;2023-05-10T12:34:32;20.60;90.30
1405;DHT22;697;51.114;6.542;2023-05-10T12:37:00;20.70;90.90
1405;DHT22;697;51.114;6.542;2023-05-10T12:39:38;20.70;91.00
1405;DHT22;697;51.114;6.542;2023-05-10T12:42:05;20.70;90.90
1405;DHT22;697;51.114;6.542;2023-05-10T12:44:32;20.70;91.20
1405;DHT22;697;51.114;6.542;2023-05-10T12:46:58;20.70;91.20
1405;DHT22;697;51.114;6.542;2023-05-10T12:49:26;20.70;90.40
1405;DHT22;697;51.114;6.542;2023-05-10T12:51:53;20.80;90.20
1405;DHT22;697;51.114;6.542;2023-05-10T12:54:20;21.00;90.50
1405;DHT22;697;51.114;6.542;2023-05-10T12:56:46;21.00;86.30
1405;DHT22;697;51.114;6.542;2023-05-10T12:59:13;21.00;88.60
1405;DHT22;697;51.114;6.542;2023-05-10T13:01:40;21.10;89.50
1405;DHT22;697;51.114;6.542;2023-05-10T13:04:07;21.20;90.00
1405;DHT22;697;51.114;6.542;2023-05-10T13:06:35;21.30;89.20
1405;DHT22;697;51.114;6.542;2023-05-10T13:09:01;21.50;88.20
1405;DHT22;697;51.114;6.542;2023-05-10T13:11:29;21.60;87.50
1405;DHT22;697;51.114;6.542;2023-05-10T13:13:55;21.40;86.60
1405;DHT22;697;51.114;6.542;2023-05-10T13:16:22;21.30;86.30
1405;DHT22;697;51.114;6.542;2023-05-10T13:18:49;21.20;87.60
1405;DHT22;697;51.114;6.542;2023-05-10T13:21:16;21.10;87.60
1405;DHT22;697;51.114;6.542;2023-05-10T13:23:44;21.00;85.10
1405;DHT22;697;51.114;6.542;2023-05-10T13:26:11;20.90;84.90
1405;DHT22;697;51.114;6.542;2023-05-10T13:28:38;20.80;85.30
1405;DHT22;697;51.114;6.542;2023-05-10T13:31:06;20.80;83.40
1405;DHT22;697;51.114;6.542;2023-05-10T13:33:32;20.90;83.00
1405;DHT22;697;51.114;6.542;2023-05-10T13:35:59;20.90;81.60
1405;DHT22;697;51.114;6.542;2023-05-10T13:38:26;20.90;80.80
1405;DHT22;697;51.114;6.542;2023-05-10T13:40:54;20.90;81.30
1405;DHT22;697;51.114;6.542;2023-05-10T13:43:20;21.00;81.30
1405;DHT22;697;51.114;6.542;2023-05-10T13:45:47;21.10;80.70
1405;DHT22;697;51.114;6.542;2023-05-10T13:48:14;21.00;80.80
1405;DHT22;697;51.114;6.542;2023-05-10T13:50:41;20.90;81.70
1405;DHT22;697;51.114;6.542;2023-05-10T13:53:07;20.70;82.40
1405;DHT22;697;51.114;6.542;2023-05-10T13:55:34;20.60;83.30
1405;DHT22;697;51.114;6.542;2023-05-10T13:58:02;20.50;82.50
1405;DHT22;697;51.114;6.542;2023-05-10T14:00:29;20.30;83.50
1405;DHT22;697;51.114;6.542;2023-05-10T14:02:56;20.40;83.20
1405;DHT22;697;51.114;6.542;2023-05-10T14:05:22;20.70;81.90
1405;DHT22;697;51.114;6.542;2023-05-10T14:07:50;21.10;83.60
1405;DHT22;697;51.114;6.542;2023-05-10T14:10:17;21.30;80.40
1405;DHT22;697;51.114;6.542;2023-05-10T14:12:43;21.60;77.80
1405;DHT22;697;51.114;6.542;2023-05-10T14:15:11;21.70;77.50
1405;DHT22;697;51.114;6.542;2023-05-10T14:17:38;22.00;76.60
1405;DHT22;697;51.114;6.542;2023-05-10T14:20:06;22.20;77.40
1405;DHT22;697;51.114;6.542;2023-05-10T14:22:33;22.50;78.10
1405;DHT22;697;51.114;6.542;2023-05-10T14:25:00;22.70;75.80
1405;DHT22;697;51.114;6.542;2023-05-10T14:27:27;22.70;73.50
1405;DHT22;697;51.114;6.542;2023-05-10T14:29:54;22.80;72.90
1405;DHT22;697;51.114;6.542;2023-05-10T14:32:22;22.50;71.20
1405;DHT22;697;51.114;6.542;2023-05-10T14:34:49;22.30;73.40
1405;DHT22;697;51.114;6.542;2023-05-10T14:37:16;22.10;74.20
1405;DHT22;697;51.114;6.542;2023-05-10T14:39:42;22.00;74.20
1405;DHT22;697;51.114;6.542;2023-05-10T14:42:09;22.00;74.20
1405;DHT22;697;51.114;6.542;2023-05-10T14:44:36;22.20;75.00
1405;DHT22;697;51.114;6.542;2023-05-10T14:47:03;22.60;72.10
1405;DHT22;697;51.114;6.542;2023-05-10T14:49:31;23.90;68.50
1405;DHT22;697;51.114;6.542;2023-05-10T14:51:58;24.30;62.30
1405;DHT22;697;51.114;6.542;2023-05-10T14:54:24;24.30;63.70
1405;DHT22;697;51.114;6.542;2023-05-10T14:56:51;24.10;62.20
1405;DHT22;697;51.114;6.542;2023-05-10T14:59:18;23.90;63.80
1405;DHT22;697;51.114;6.542;2023-05-10T15:01:45;23.70;63.90
1405;DHT22;697;51.114;6.542;2023-05-10T15:04:11;23.60;65.00
1405;DHT22;697;51.114;6.542;2023-05-10T15:06:40;23.40;65.70
1405;DHT22;697;51.114;6.542;2023-05-10T15:09:07;23.10;65.40
1405;DHT22;697;51.114;6.542;2023-05-10T15:11:34;22.70;67.80
1405;DHT22;697;51.114;6.542;2023-05-10T15:14:01;22.50;70.10
1405;DHT22;697;51.114;6.542;2023-05-10T15:16:28;22.20;70.50
1405;DHT22;697;51.114;6.542;2023-05-10T15:18:54;21.90;70.50
1405;DHT22;697;51.114;6.542;2023-05-10T15:21:21;21.70;72.70
1405;DHT22;697;51.114;6.542;2023-05-10T15:23:49;21.50;74.20
1405;DHT22;697;51.114;6.542;2023-05-10T15:26:16;21.30;73.30
1405;DHT22;697;51.114;6.542;2023-05-10T15:28:42;21.20;74.70
1405;DHT22;697;51.114;6.542;2023-05-10T15:31:09;21.10;74.70
1405;DHT22;697;51.114;6.542;2023-05-10T15:33:37;21.10;74.60
1405;DHT22;697;51.114;6.542;2023-05-10T15:36:04;21.00;74.30
1405;DHT22;697;51.114;6.542;2023-05-10T15:38:31;21.00;75.60
1405;DHT22;697;51.114;6.542;2023-05-10T15:41:00;21.00;76.00
1405;DHT22;697;51.114;6.542;2023-05-10T15:43:26;21.00;76.40
1405;DHT22;697;51.114;6.542;2023-05-10T15:45:53;21.00;75.90
1405;DHT22;697;51.114;6.542;2023-05-10T15:48:20;20.80;77.40
1405;DHT22;697;51.114;6.542;2023-05-10T15:50:46;20.70;76.80
1405;DHT22;697;51.114;6.542;2023-05-10T15:53:13;20.70;77.60
1405;DHT22;697;51.114;6.542;2023-05-10T15:55:40;20.70;78.50
1405;DHT22;697;51.114;6.542;2023-05-10T15:58:10;20.70;79.50
1405;DHT22;697;51.114;6.542;2023-05-10T16:00:37;20.50;78.10
1405;DHT22;697;51.114;6.542;2023-05-10T16:03:04;20.50;79.50
1405;DHT22;697;51.114;6.542;2023-05-10T16:05:31;20.50;79.40
1405;DHT22;697;51.114;6.542;2023-05-10T16:07:58;20.60;79.70
1405;DHT22;697;51.114;6.542;2023-05-10T16:10:24;20.40;77.70
1405;DHT22;697;51.114;6.542;2023-05-10T16:12:52;20.20;78.70
1405;DHT22;697;51.114;6.542;2023-05-10T16:15:20;20.20;78.60
1405;DHT22;697;51.114;6.542;2023-05-10T16:17:47;20.10;78.90
1405;DHT22;697;51.114;6.542;2023-05-10T16:20:13;20.10;79.80
1405;DHT22;697;51.114;6.542;2023-05-10T16:22:40;20.00;80.20